Time;durP1;ratioP1;P1;durP2;ratioP2;P2;SDS_P1;SDS_P2;PMS_P1;PMS_P2;Temp;Humidity;BMP_temperature;BMP_pressure;BME280_temperature;BME280_humidity;BME280_pressure;Samples;Min_cycle;Max_cycle;Signal;HPM_P1;HPM_P2
2021/04/20 00:01:03;;;;;;;16.60;14.27;;;6.70;99.90;;;;;;5032150;28;20457;-70
2021/04/20 00:03:29;;;;;;;17.45;15.02;;;6.70;99.90;;;;;;5032238;28;20361;-70
2021/04/20 00:05:55;;;;;;;19.67;16.40;;;6.70;99.90;;;;;;5030281;28;20037;-70
2021/04/20 00:08:22;;;;;;;26.05;17.10;;;6.70;99.90;;;;;;5031946;28;20065;-70
2021/04/20 00:10:48;;;;;;;17.65;15.75;;;6.60;99.90;;;;;;5030167;28;20068;-70
2021/04/20 00:13:14;;;;;;;17.48;15.48;;;6.60;99.90;;;;;;5030134;28;20042;-69
2021/04/20 00:15:40;;;;;;;17.02;14.15;;;6.60;99.90;;;;;;5034073;28;20052;-71
2021/04/20 00:18:07;;;;;;;16.05;12.98;;;6.60;99.90;;;;;;5033003;28;20045;-70
2021/04/20 00:20:34;;;;;;;16.10;14.40;;;6.50;99.90;;;;;;5031485;28;20119;-70
2021/04/20 00:22:59;;;;;;;18.17;15.07;;;6.50;99.90;;;;;;5026732;28;20083;-70
2021/04/20 00:25:25;;;;;;;19.63;16.33;;;6.50;99.90;;;;;;5030040;28;20821;-70
2021/04/20 00:27:51;;;;;;;17.88;14.60;;;6.50;99.90;;;;;;5029095;28;20038;-69
2021/04/20 00:30:18;;;;;;;16.65;13.90;;;6.50;99.90;;;;;;5032791;28;20591;-71
2021/04/20 00:32:44;;;;;;;19.30;17.08;;;6.40;99.90;;;;;;5030939;28;20453;-70
2021/04/20 00:35:11;;;;;;;24.92;20.40;;;6.20;99.90;;;;;;5032503;28;20040;-69
2021/04/20 00:37:40;;;;;;;26.90;21.15;;;6.10;99.90;;;;;;5031962;28;20573;-70
2021/04/20 00:40:08;;;;;;;25.80;20.38;;;6.10;99.90;;;;;;5032194;28;20087;-69
2021/04/20 00:42:46;;;;;;;25.85;20.58;;;6.10;99.90;;;;;;5029793;28;20068;-70
2021/04/20 00:45:16;;;;;;;23.08;20.02;;;6.10;99.90;;;;;;5031692;28;20038;-69
2021/04/20 00:47:42;;;;;;;20.65;16.17;;;6.20;99.90;;;;;;5029874;28;20133;-70
2021/04/20 00:50:11;;;;;;;20.35;16.75;;;6.20;99.90;;;;;;5028062;28;20128;-72
2021/04/20 00:52:37;;;;;;;22.73;19.40;;;6.30;99.90;;;;;;5027949;28;20037;-70
2021/04/20 00:55:04;;;;;;;25.60;20.52;;;6.30;99.90;;;;;;5039904;28;20044;-70
2021/04/20 00:57:30;;;;;;;27.05;20.23;;;6.30;99.90;;;;;;5026520;28;20484;-71
2021/04/20 00:59:56;;;;;;;25.67;20.85;;;6.40;99.90;;;;;;5044233;28;20048;-70
2021/04/20 01:02:22;;;;;;;25.10;21.08;;;6.40;99.90;;;;;;5028976;28;20108;-70
2021/04/20 01:04:49;;;;;;;23.95;19.27;;;6.40;99.90;;;;;;5008297;28;20040;-70
2021/04/20 01:07:16;;;;;;;22.85;20.13;;;6.30;99.90;;;;;;5028912;28;20041;-70
2021/04/20 01:09:43;;;;;;;27.42;21.65;;;6.40;99.90;;;;;;5026165;28;20566;-70
2021/04/20 01:12:09;;;;;;;26.05;21.33;;;6.40;99.90;;;;;;5026800;28;20037;-69
2021/04/20 01:14:36;;;;;;;26.25;21.48;;;6.40;99.90;;;;;;5026602;28;20626;-70
2021/04/20 01:17:03;;;;;;;22.55;18.25;;;6.30;99.90;;;;;;5023986;28;21064;-70
2021/04/20 01:19:31;;;;;;;26.02;20.52;;;6.60;99.90;;;;;;5030600;28;20052;-71
2021/04/20 01:22:02;;;;;;;13.68;12.15;;;6.10;99.90;;;;;;5028840;28;20110;-71
2021/04/20 01:24:28;;;;;;;16.83;14.93;;;6.10;99.90;;;;;;5025539;28;20041;-69
2021/04/20 01:26:57;;;;;;;23.45;18.25;;;6.10;99.90;;;;;;5025856;28;20037;-69
2021/04/20 01:29:23;;;;;;;22.15;18.67;;;6.10;99.90;;;;;;5025372;28;20053;-69
2021/04/20 01:31:50;;;;;;;25.23;20.02;;;6.10;99.90;;;;;;5024246;28;21134;-69
2021/04/20 01:34:16;;;;;;;24.10;19.35;;;6.10;99.90;;;;;;5029736;28;20426;-70
2021/04/20 01:36:42;;;;;;;21.70;19.30;;;6.10;99.90;;;;;;5027845;28;20172;-70
2021/04/20 01:39:11;;;;;;;18.95;16.00;;;6.20;99.90;;;;;;5027050;28;20500;-70
2021/04/20 01:41:38;;;;;;;21.83;18.48;;;6.10;99.90;;;;;;5022822;28;20098;-70
2021/04/20 01:44:05;;;;;;;20.40;16.65;;;6.10;99.90;;;;;;5024319;28;20065;-70
2021/04/20 01:46:31;;;;;;;27.45;19.25;;;6.00;99.90;;;;;;5026874;28;20045;-70
2021/04/20 01:48:57;;;;;;;25.45;20.88;;;6.00;99.90;;;;;;5026555;28;20045;-70
2021/04/20 01:51:25;;;;;;;27.42;20.88;;;6.00;99.90;;;;;;5028801;28;20099;-70
2021/04/20 01:53:52;;;;;;;21.88;18.63;;;6.00;99.90;;;;;;5024782;28;20041;-70
2021/04/20 01:56:19;;;;;;;23.95;19.27;;;6.00;99.90;;;;;;5021432;28;20042;-70
2021/04/20 01:58:47;;;;;;;22.17;17.90;;;5.90;99.90;;;;;;5025532;28;20072;-70
2021/04/20 02:01:24;;;;;;;24.65;20.48;;;5.80;99.90;;;;;;5022696;28;20141;-70
2021/04/20 02:03:51;;;;;;;26.63;20.95;;;5.80;99.90;;;;;;5026720;28;20048;-70
2021/04/20 02:06:20;;;;;;;23.23;20.63;;;5.90;99.90;;;;;;5028502;28;20049;-70
2021/04/20 02:08:47;;;;;;;29.00;23.88;;;5.90;99.90;;;;;;5027651;28;20061;-70
2021/04/20 02:11:17;;;;;;;28.27;22.15;;;6.00;99.90;;;;;;5024600;28;20051;-70
2021/04/20 02:13:43;;;;;;;30.23;23.33;;;6.00;99.90;;;;;;5027295;28;20043;-70
2021/04/20 02:16:10;;;;;;;24.30;21.50;;;6.10;99.90;;;;;;5022140;28;20045;-70
2021/04/20 02:18:45;;;;;;;23.95;20.27;;;6.10;99.90;;;;;;5029379;28;20594;-70
2021/04/20 02:21:12;;;;;;;23.87;19.73;;;6.00;99.90;;;;;;5028768;28;20047;-69
2021/04/20 02:23:40;;;;;;;24.40;20.70;;;6.00;99.90;;;;;;5029807;28;20141;-70
2021/04/20 02:26:08;;;;;;;26.35;21.23;;;6.10;99.90;;;;;;5040113;28;20053;-70
2021/04/20 02:28:34;;;;;;;29.63;23.17;;;6.10;99.90;;;;;;5022925;28;20136;-70
2021/04/20 02:31:08;;;;;;;29.52;23.05;;;6.10;99.90;;;;;;5025790;28;20144;-70
2021/04/20 02:33:35;;;;;;;27.95;22.98;;;6.10;99.90;;;;;;5028188;28;20046;-70
2021/04/20 02:36:03;;;;;;;30.90;23.42;;;6.10;99.90;;;;;;5029768;28;20040;-71
2021/04/20 02:38:30;;;;;;;29.10;23.38;;;6.10;99.90;;;;;;5029027;28;20041;-70
2021/04/20 02:41:02;;;;;;;27.20;19.27;;;6.00;99.90;;;;;;5029572;28;20139;-70
2021/04/20 02:43:29;;;;;;;26.23;20.60;;;5.90;99.90;;;;;;5023900;28;20173;-70
2021/04/20 02:45:57;;;;;;;25.98;19.55;;;5.90;99.90;;;;;;5029597;28;20037;-70
2021/04/20 02:48:27;;;;;;;30.02;21.60;;;5.90;99.90;;;;;;5028885;28;20048;-70
2021/04/20 02:50:54;;;;;;;32.13;23.80;;;5.90;99.90;;;;;;5033220;28;20049;-70
2021/04/20 02:53:20;;;;;;;32.03;22.05;;;6.00;99.90;;;;;;5033364;28;20399;-70
2021/04/20 02:55:46;;;;;;;27.77;22.48;;;6.00;99.90;;;;;;5032012;28;20483;-70
2021/04/20 02:58:16;;;;;;;27.92;21.70;;;6.10;99.90;;;;;;5029905;28;20053;-71
2021/04/20 03:00:46;;;;;;;28.13;22.67;;;6.10;99.90;;;;;;5033853;28;20073;-70
2021/04/20 03:03:15;;;;;;;33.05;23.80;;;6.00;99.90;;;;;;5033329;28;20049;-69
2021/04/20 03:05:42;;;;;;;26.50;20.67;;;5.90;99.90;;;;;;5029763;28;20045;-70
2021/04/20 03:08:08;;;;;;;27.40;21.23;;;5.90;99.90;;;;;;5031462;28;20107;-71
2021/04/20 03:10:38;;;;;;;31.80;23.25;;;6.00;99.90;;;;;;5033908;28;20049;-70
2021/04/20 03:13:05;;;;;;;25.85;20.95;;;6.10;99.90;;;;;;5033072;28;20045;-70
2021/04/20 03:15:32;;;;;;;27.50;21.98;;;6.10;99.90;;;;;;5027835;28;20044;-70
2021/04/20 03:17:58;;;;;;;22.98;19.05;;;6.10;99.90;;;;;;5030145;28;20041;-70
2021/04/20 03:20:24;;;;;;;27.52;22.65;;;6.10;99.90;;;;;;5032850;28;20045;-71
2021/04/20 03:22:52;;;;;;;30.65;22.73;;;6.10;99.90;;;;;;5031803;28;20033;-70
2021/04/20 03:25:22;;;;;;;29.17;23.70;;;6.00;99.90;;;;;;5033365;28;20056;-70
2021/04/20 03:27:53;;;;;;;29.38;22.77;;;6.00;99.90;;;;;;5031447;28;20049;-71
2021/04/20 03:30:23;;;;;;;27.70;21.45;;;6.00;99.90;;;;;;5030298;28;20099;-70
2021/04/20 03:33:13;;;;;;;30.10;22.88;;;6.00;99.90;;;;;;5030881;28;20134;-70
2021/04/20 03:36:01;;;;;;;29.95;22.25;;;5.90;99.90;;;;;;5029741;28;20433;-70
2021/04/20 03:38:35;;;;;;;30.73;23.55;;;6.00;99.90;;;;;;5033154;28;20060;-70
2021/04/20 03:41:15;;;;;;;28.75;23.02;;;6.10;99.90;;;;;;5033275;28;20042;-70
2021/04/20 03:43:44;;;;;;;31.10;24.60;;;6.10;99.90;;;;;;5027428;28;20049;-71
2021/04/20 03:46:20;;;;;;;29.88;23.60;;;6.20;99.90;;;;;;5028759;28;20080;-70
2021/04/20 03:48:56;;;;;;;28.50;23.67;;;6.20;99.90;;;;;;5031083;28;20513;-69
2021/04/20 03:51:26;;;;;;;33.35;24.73;;;6.30;99.90;;;;;;5029730;28;20171;-70
2021/04/20 03:53:55;;;;;;;33.95;27.33;;;6.40;99.90;;;;;;5030950;28;20033;-70
2021/04/20 03:56:27;;;;;;;36.47;27.20;;;6.40;99.90;;;;;;5033482;28;20033;-71
2021/04/20 03:58:55;;;;;;;34.22;28.08;;;6.40;99.90;;;;;;5032958;28;20049;-70
2021/04/20 04:01:23;;;;;;;31.42;24.10;;;6.40;99.90;;;;;;5032405;28;20033;-70
2021/04/20 04:03:50;;;;;;;36.05;26.75;;;6.40;99.90;;;;;;5032861;28;20033;-70
2021/04/20 04:06:19;;;;;;;37.80;29.50;;;6.50;99.90;;;;;;5032297;28;20510;-71
2021/04/20 04:08:47;;;;;;;32.67;26.65;;;6.50;99.90;;;;;;5031945;28;20049;-70
2021/04/20 04:11:14;;;;;;;32.60;24.75;;;6.70;99.90;;;;;;5032202;28;20140;-71
2021/04/20 04:13:42;;;;;;;32.05;25.35;;;6.70;99.90;;;;;;5032607;28;20049;-71
2021/04/20 04:16:12;;;;;;;30.67;26.05;;;6.50;99.90;;;;;;5030885;28;20041;-71
2021/04/20 04:18:41;;;;;;;34.00;27.95;;;6.50;99.90;;;;;;5047138;28;20402;-71
2021/04/20 04:21:08;;;;;;;39.05;30.65;;;6.60;99.90;;;;;;5032700;28;20072;-71
2021/04/20 04:23:45;;;;;;;37.30;28.45;;;6.60;99.90;;;;;;5032872;28;20034;-71
2021/04/20 04:26:15;;;;;;;31.10;25.77;;;6.70;99.90;;;;;;5035341;28;20121;-71
2021/04/20 04:28:47;;;;;;;28.90;23.35;;;6.70;99.90;;;;;;5026719;28;20029;-71
2021/04/20 04:31:14;;;;;;;31.05;23.42;;;6.60;99.90;;;;;;5030063;28;20052;-72
2021/04/20 04:33:41;;;;;;;30.13;24.70;;;6.50;99.90;;;;;;5032239;28;20037;-71
2021/04/20 04:36:11;;;;;;;34.38;28.13;;;6.50;99.90;;;;;;5029887;28;20037;-71
2021/04/20 04:38:38;;;;;;;42.65;31.05;;;6.60;99.90;;;;;;5030463;28;21053;-71
2021/04/20 04:41:06;;;;;;;34.47;28.15;;;6.50;99.90;;;;;;5040608;28;20049;-71
2021/04/20 04:43:32;;;;;;;39.72;30.00;;;6.60;99.90;;;;;;5025649;28;20038;-71
2021/04/20 04:45:58;;;;;;;37.38;28.33;;;6.70;99.90;;;;;;5042763;28;20033;-71
2021/04/20 04:48:44;;;;;;;42.17;30.92;;;6.70;99.90;;;;;;5025698;28;20038;-71
2021/04/20 04:51:11;;;;;;;49.22;35.78;;;6.80;99.90;;;;;;5029022;28;20045;-71
2021/04/20 04:53:39;;;;;;;42.78;33.10;;;6.80;99.90;;;;;;5038843;28;20077;-71
2021/04/20 04:56:06;;;;;;;48.85;35.00;;;6.90;99.90;;;;;;4996182;28;20050;-71
2021/04/20 04:58:35;;;;;;;50.78;36.22;;;7.00;99.90;;;;;;5021714;28;20051;-71
2021/04/20 05:01:03;;;;;;;42.58;35.10;;;7.10;99.90;;;;;;5028568;28;20045;-71
2021/04/20 05:03:29;;;;;;;44.17;32.97;;;7.20;99.90;;;;;;5027664;28;20049;-71
2021/04/20 05:05:59;;;;;;;48.60;37.35;;;7.30;99.90;;;;;;5025431;28;20095;-71
2021/04/20 05:08:25;;;;;;;48.22;36.40;;;7.40;99.90;;;;;;5028039;28;20479;-71
2021/04/20 05:10:52;;;;;;;52.58;38.70;;;7.50;99.90;;;;;;5026359;28;20080;-71
2021/04/20 05:13:18;;;;;;;45.33;36.80;;;7.60;99.90;;;;;;5025673;28;20045;-71
2021/04/20 05:15:45;;;;;;;40.60;32.80;;;7.80;99.90;;;;;;5028682;28;20052;-69
2021/04/20 05:18:12;;;;;;;34.33;28.88;;;8.20;99.90;;;;;;5028848;28;20037;-69
2021/04/20 05:20:42;;;;;;;41.63;33.65;;;8.60;99.90;;;;;;5025117;28;20057;-69
2021/04/20 05:23:08;;;;;;;46.55;35.95;;;9.00;99.90;;;;;;5030497;28;20050;-72
2021/04/20 05:25:35;;;;;;;41.10;32.25;;;9.30;99.90;;;;;;5030736;28;20532;-70
2021/04/20 05:28:01;;;;;;;35.05;31.30;;;9.70;99.90;;;;;;5025110;28;20045;-72
2021/04/20 05:30:27;;;;;;;44.13;34.42;;;10.20;99.90;;;;;;5026628;28;20150;-72
2021/04/20 05:32:53;;;;;;;35.15;30.58;;;10.50;99.30;;;;;;5030430;28;20041;-72
2021/04/20 05:35:23;;;;;;;38.70;32.17;;;10.90;98.70;;;;;;5030685;28;20100;-72
2021/04/20 05:37:49;;;;;;;37.15;30.17;;;11.30;97.90;;;;;;5029628;28;20411;-70
2021/04/20 05:40:21;;;;;;;37.00;33.10;;;11.50;96.90;;;;;;5030160;28;20042;-71
2021/04/20 05:42:50;;;;;;;41.05;31.90;;;11.50;96.60;;;;;;5027833;28;20510;-72
2021/04/20 05:45:16;;;;;;;34.47;30.00;;;11.80;96.60;;;;;;5029464;28;20480;-72
2021/04/20 05:47:44;;;;;;;37.55;31.88;;;12.30;96.40;;;;;;5030662;28;20045;-71
2021/04/20 05:50:17;;;;;;;33.63;29.95;;;12.60;95.60;;;;;;5025788;28;20068;-72
2021/04/20 05:52:43;;;;;;;34.08;30.45;;;13.20;94.70;;;;;;5025069;28;20045;-72
2021/04/20 05:55:09;;;;;;;37.13;32.30;;;13.40;92.90;;;;;;5023939;28;20034;-70
2021/04/20 05:57:36;;;;;;;37.42;31.38;;;13.90;93.40;;;;;;5017877;28;20172;-71
2021/04/20 06:00:04;;;;;;;36.35;32.33;;;14.40;92.30;;;;;;5020088;28;20041;-70
2021/04/20 06:02:33;;;;;;;33.28;29.58;;;14.60;91.30;;;;;;5025487;28;20041;-70
2021/04/20 06:05:04;;;;;;;34.53;30.77;;;14.90;91.20;;;;;;5020928;28;20041;-70
2021/04/20 06:07:32;;;;;;;35.10;31.40;;;15.30;90.40;;;;;;5024637;28;20136;-70
2021/04/20 06:09:59;;;;;;;36.03;31.42;;;15.30;87.20;;;;;;5025484;28;20655;-70
2021/04/20 06:12:25;;;;;;;34.72;30.95;;;15.40;89.70;;;;;;5028448;28;20119;-70
2021/04/20 06:14:51;;;;;;;36.13;32.20;;;15.90;89.20;;;;;;5023108;28;20076;-70
2021/04/20 06:17:17;;;;;;;33.42;29.77;;;16.10;86.20;;;;;;5022194;28;20085;-71
2021/04/20 06:19:43;;;;;;;35.00;31.30;;;15.80;87.20;;;;;;5025742;28;20045;-71
2021/04/20 06:22:11;;;;;;;35.63;31.83;;;16.20;84.20;;;;;;5026098;28;20037;-71
2021/04/20 06:24:38;;;;;;;34.72;30.40;;;15.70;84.20;;;;;;5029405;28;20037;-71
2021/04/20 06:27:05;;;;;;;34.50;30.83;;;15.40;86.10;;;;;;5024846;28;20052;-71
2021/04/20 06:29:31;;;;;;;33.53;30.02;;;15.60;86.80;;;;;;5027792;28;20050;-71
2021/04/20 06:31:57;;;;;;;35.10;31.48;;;15.50;85.40;;;;;;5026970;28;20044;-71
2021/04/20 06:34:24;;;;;;;36.45;31.65;;;15.40;85.80;;;;;;5023092;28;20099;-71
2021/04/20 06:36:54;;;;;;;35.45;31.83;;;15.30;85.70;;;;;;5025220;28;20781;-71
2021/04/20 06:39:22;;;;;;;36.13;32.20;;;15.30;85.50;;;;;;5022598;28;20491;-71
2021/04/20 06:41:56;;;;;;;34.53;30.60;;;15.40;87.30;;;;;;5021290;28;20045;-71
2021/04/20 06:44:32;;;;;;;35.05;31.50;;;15.70;85.70;;;;;;5024231;28;20049;-71
2021/04/20 06:47:20;;;;;;;36.97;32.80;;;15.30;86.80;;;;;;5023288;28;20042;-71
2021/04/20 06:49:55;;;;;;;35.38;30.52;;;14.90;90.20;;;;;;5018844;28;20124;-71
2021/04/20 06:52:31;;;;;;;36.53;32.67;;;14.60;90.10;;;;;;5038822;28;20056;-70
2021/04/20 06:55:05;;;;;;;35.53;31.67;;;14.40;90.50;;;;;;5014223;28;20040;-70
2021/04/20 06:58:00;;;;;;;36.05;30.23;;;14.20;90.50;;;;;;5016483;28;20045;-70
2021/04/20 07:00:29;;;;;;;41.13;32.65;;;14.10;91.50;;;;;;5013766;28;20095;-70
2021/04/20 07:03:13;;;;;;;36.85;31.75;;;14.10;92.20;;;;;;5012559;28;20029;-71
2021/04/20 07:05:39;;;;;;;36.08;32.13;;;14.20;92.00;;;;;;5015936;28;20057;-70
2021/04/20 07:08:34;;;;;;;34.80;31.08;;;14.00;92.30;;;;;;5018604;28;20201;-70
2021/04/20 07:11:05;;;;;;;42.67;34.30;;;14.20;91.40;;;;;;5025382;28;20073;-70
2021/04/20 07:13:32;;;;;;;34.63;30.88;;;14.20;92.10;;;;;;5023065;28;20037;-70
2021/04/20 07:16:15;;;;;;;35.92;32.20;;;14.30;91.30;;;;;;5019073;28;20046;-71
2021/04/20 07:19:06;;;;;;;36.15;30.92;;;14.00;92.70;;;;;;5018678;28;20064;-70
2021/04/20 07:21:50;;;;;;;38.00;32.40;;;14.10;91.90;;;;;;5022515;28;20038;-70
2021/04/20 07:24:19;;;;;;;38.58;30.67;;;14.30;91.80;;;;;;5021183;28;20033;-71
2021/04/20 07:26:48;;;;;;;39.08;32.03;;;14.30;91.50;;;;;;5018873;28;20529;-70
2021/04/20 07:29:17;;;;;;;38.67;32.70;;;14.20;91.70;;;;;;5017252;28;20045;-70
2021/04/20 07:31:52;;;;;;;35.35;30.02;;;14.40;91.80;;;;;;5019168;28;20061;-71
2021/04/20 07:34:50;;;;;;;39.92;31.35;;;14.20;91.60;;;;;;5018037;28;20045;-71
2021/04/20 07:37:34;;;;;;;32.88;29.40;;;14.20;92.20;;;;;;5015673;28;20049;-70
2021/04/20 07:40:34;;;;;;;34.55;27.98;;;14.30;92.50;;;;;;5018551;28;20049;-71
2021/04/20 07:43:28;;;;;;;35.33;30.40;;;14.30;91.00;;;;;;5020720;28;20096;-70
2021/04/20 07:46:26;;;;;;;34.67;29.40;;;14.60;91.60;;;;;;5028779;28;20383;-70
2021/04/20 07:49:40;;;;;;;35.45;30.00;;;14.70;91.20;;;;;;5028777;28;20041;-71
2021/04/20 07:52:13;;;;;;;30.17;26.85;;;14.60;91.20;;;;;;4964402;28;20050;-70
2021/04/20 07:54:53;;;;;;;29.38;25.42;;;14.90;91.40;;;;;;5020854;28;20107;-70
2021/04/20 07:57:30;;;;;;;31.42;25.85;;;15.50;91.20;;;;;;5027777;28;20049;-71
2021/04/20 08:00:20;;;;;;;25.75;21.95;;;15.80;89.90;;;;;;5025769;28;20041;-70
2021/04/20 08:03:16;;;;;;;26.83;20.65;;;16.20;88.50;;;;;;5022823;28;20046;-71
2021/04/20 08:05:48;;;;;;;22.65;18.35;;;16.60;85.40;;;;;;5025608;28;20052;-71
2021/04/20 08:08:22;;;;;;;21.75;19.08;;;16.90;81.90;;;;;;5025339;28;20052;-72
2021/04/20 08:11:11;;;;;;;22.42;18.63;;;17.20;78.90;;;;;;5025881;28;20128;-72
2021/04/20 08:14:16;;;;;;;23.50;17.92;;;17.60;79.30;;;;;;5022547;28;21015;-72
2021/04/20 08:16:53;;;;;;;22.27;17.25;;;17.90;78.40;;;;;;5039636;28;20061;-71
2021/04/20 08:19:53;;;;;;;20.98;17.15;;;18.30;77.50;;;;;;5021586;28;20086;-71
2021/04/20 08:22:19;;;;;;;21.17;18.48;;;18.50;74.40;;;;;;5021726;28;20053;-71
2021/04/20 08:25:12;;;;;;;21.73;19.33;;;18.40;77.10;;;;;;5021608;28;20075;-71
2021/04/20 08:27:50;;;;;;;25.27;19.85;;;18.50;75.00;;;;;;5017659;28;20488;-71
2021/04/20 08:30:31;;;;;;;25.75;20.38;;;18.20;70.40;;;;;;5021882;28;20038;-72
2021/04/20 08:32:59;;;;;;;28.25;22.45;;;18.00;75.80;;;;;;5028848;28;20045;-72
2021/04/20 08:35:31;;;;;;;23.60;21.17;;;17.90;74.60;;;;;;5026050;28;20075;-72
2021/04/20 08:38:24;;;;;;;27.33;22.55;;;17.50;74.80;;;;;;5022217;28;20037;-71
2021/04/20 08:41:05;;;;;;;22.05;19.70;;;17.10;77.10;;;;;;5022833;28;20041;-72
2021/04/20 08:44:00;;;;;;;22.17;19.80;;;17.00;78.80;;;;;;5022865;28;20025;-71
2021/04/20 08:46:54;;;;;;;26.80;21.67;;;16.80;75.30;;;;;;5024557;28;20440;-71
2021/04/20 08:49:45;;;;;;;26.25;21.77;;;16.70;78.90;;;;;;5037009;28;20183;-71
2021/04/20 08:52:48;;;;;;;28.40;19.92;;;16.60;80.80;;;;;;5023712;28;20060;-71
2021/04/20 08:55:24;;;;;;;23.45;20.27;;;16.90;80.60;;;;;;5028772;28;20116;-71
2021/04/20 08:58:16;;;;;;;27.35;21.65;;;17.00;77.10;;;;;;5012734;28;20041;-71
2021/04/20 09:01:29;;;;;;;24.33;21.17;;;17.20;79.60;;;;;;5009584;28;20057;-71
2021/04/20 09:04:33;;;;;;;25.73;21.10;;;17.20;79.60;;;;;;5024554;28;20049;-70
2021/04/20 09:07:13;;;;;;;23.38;19.83;;;17.00;78.40;;;;;;5021904;28;20033;-71
2021/04/20 09:09:42;;;;;;;25.00;20.67;;;17.10;77.10;;;;;;5019339;28;20037;-71
2021/04/20 09:12:11;;;;;;;24.52;19.83;;;17.00;79.30;;;;;;5019773;28;20050;-71
2021/04/20 09:14:41;;;;;;;27.75;20.55;;;16.90;77.80;;;;;;5017731;28;20052;-71
2021/04/20 09:17:10;;;;;;;23.15;19.85;;;16.90;76.60;;;;;;5021328;28;20087;-71
2021/04/20 09:20:00;;;;;;;22.48;19.13;;;17.00;77.50;;;;;;5023517;28;20041;-71
2021/04/20 09:23:02;;;;;;;22.58;16.58;;;16.80;73.50;;;;;;5023922;28;20053;-71
2021/04/20 09:25:42;;;;;;;22.02;18.40;;;16.70;77.90;;;;;;5021877;28;20047;-71
2021/04/20 09:28:16;;;;;;;19.98;17.90;;;16.70;79.20;;;;;;5023207;28;20048;-71
2021/04/20 09:30:52;;;;;;;19.73;15.38;;;16.60;78.00;;;;;;5020245;28;20045;-70
2021/04/20 09:33:26;;;;;;;21.08;15.45;;;16.60;76.20;;;;;;5022740;28;20496;-71
2021/04/20 09:35:53;;;;;;;18.80;14.02;;;16.50;73.10;;;;;;5023187;28;20052;-71
2021/04/20 09:38:20;;;;;;;21.13;14.80;;;16.40;73.20;;;;;;5022577;28;20102;-70
2021/04/20 09:40:48;;;;;;;22.70;15.05;;;16.30;74.90;;;;;;5023711;28;20037;-71
2021/04/20 09:43:23;;;;;;;20.23;14.30;;;16.30;70.50;;;;;;5022956;28;20065;-70
2021/04/20 09:46:07;;;;;;;19.80;14.48;;;16.30;74.30;;;;;;5020882;28;20049;-71
2021/04/20 09:49:04;;;;;;;16.23;13.65;;;16.40;73.00;;;;;;5022505;28;20385;-70
2021/04/20 09:51:35;;;;;;;21.80;16.50;;;16.40;75.00;;;;;;5021392;28;20042;-70
2021/04/20 09:54:11;;;;;;;23.17;17.92;;;16.40;73.60;;;;;;5018963;28;20041;-71
2021/04/20 09:56:43;;;;;;;23.35;16.90;;;16.60;75.00;;;;;;5015562;28;20868;-71
2021/04/20 09:59:19;;;;;;;20.42;17.20;;;16.90;75.50;;;;;;5016863;28;20407;-71
2021/04/20 10:02:01;;;;;;;22.88;17.23;;;17.00;73.10;;;;;;5015887;28;20042;-70
2021/04/20 10:04:42;;;;;;;16.52;14.48;;;17.00;74.00;;;;;;5021452;28;20391;-70
2021/04/20 10:07:49;;;;;;;19.13;16.02;;;16.90;71.50;;;;;;5020610;28;20147;-71
2021/04/20 10:10:49;;;;;;;22.15;16.40;;;17.10;72.50;;;;;;4975432;28;20068;-71
2021/04/20 10:13:41;;;;;;;19.02;16.25;;;17.20;69.70;;;;;;5020671;28;20132;-70
2021/04/20 10:16:26;;;;;;;17.25;14.60;;;17.50;76.70;;;;;;5018941;28;20045;-71
2021/04/20 10:19:27;;;;;;;18.73;14.45;;;17.90;75.70;;;;;;5025401;28;20077;-71
2021/04/20 10:22:12;;;;;;;21.23;14.68;;;18.00;69.50;;;;;;5023537;28;20129;-70
2021/04/20 10:24:51;;;;;;;14.53;12.43;;;18.00;66.70;;;;;;5028347;28;20029;-71
2021/04/20 10:27:25;;;;;;;17.08;13.02;;;18.10;68.90;;;;;;5030040;28;20128;-71
2021/04/20 10:30:12;;;;;;;18.92;12.70;;;18.20;71.80;;;;;;5027715;28;20136;-70
2021/04/20 10:32:53;;;;;;;15.27;13.18;;;18.50;61.50;;;;;;5021912;28;20157;-70
2021/04/20 10:35:30;;;;;;;19.60;13.38;;;18.70;62.30;;;;;;5021472;28;20073;-70
2021/04/20 10:37:59;;;;;;;16.77;12.20;;;18.60;63.80;;;;;;5022479;28;20037;-70
2021/04/20 10:40:35;;;;;;;16.50;11.45;;;18.20;63.30;;;;;;5033512;28;20037;-71
2021/04/20 10:43:05;;;;;;;;;;;18.40;61.10;;;;;;5019974;28;20056;-71
2021/04/20 10:45:32;;;;;;;16.17;10.55;;;18.40;66.70;;;;;;5020626;28;19936;-70
2021/04/20 10:47:59;;;;;;;14.27;10.23;;;18.80;68.20;;;;;;5021690;28;20042;-70
2021/04/20 10:50:30;;;;;;;12.77;7.60;;;19.20;64.90;;;;;;5021797;28;20041;-71
2021/04/20 10:53:17;;;;;;;17.73;8.82;;;19.10;55.80;;;;;;5026135;28;20037;-71
2021/04/20 10:56:04;;;;;;;9.85;6.72;;;19.20;58.30;;;;;;5023225;28;20056;-71
2021/04/20 10:58:31;;;;;;;7.60;5.75;;;18.60;51.20;;;;;;5023749;28;20053;-71
2021/04/20 11:00:58;;;;;;;12.60;6.63;;;18.60;54.80;;;;;;5021174;28;20033;-70
2021/04/20 11:03:34;;;;;;;8.75;5.65;;;18.50;52.90;;;;;;5020937;28;20041;-71
2021/04/20 11:06:02;;;;;;;10.35;4.80;;;18.90;56.00;;;;;;5021037;28;20129;-71
2021/04/20 11:08:48;;;;;;;11.65;4.95;;;19.30;54.30;;;;;;5036200;28;20052;-71
2021/04/20 11:11:21;;;;;;;9.70;5.00;;;19.00;48.60;;;;;;5023425;28;20041;-71
2021/04/20 11:13:48;;;;;;;10.07;4.50;;;19.20;49.20;;;;;;5030735;28;20083;-71
2021/04/20 11:16:40;;;;;;;11.73;5.53;;;19.30;51.80;;;;;;5029409;28;20077;-71
2021/04/20 11:19:10;;;;;;;6.95;4.40;;;19.10;47.10;;;;;;5028497;28;20049;-70
2021/04/20 11:21:41;;;;;;;7.90;4.70;;;18.70;50.10;;;;;;5030504;28;20033;-71
2021/04/20 11:24:19;;;;;;;7.13;4.47;;;18.70;51.00;;;;;;5031407;28;20034;-71
2021/04/20 11:26:53;;;;;;;8.27;6.28;;;19.10;52.40;;;;;;5033741;28;20064;-70
2021/04/20 11:29:55;;;;;;;12.20;5.72;;;18.90;49.20;;;;;;5030233;28;20415;-71
2021/04/20 11:32:24;;;;;;;9.55;5.40;;;18.50;48.90;;;;;;5017562;28;20103;-70
2021/04/20 11:34:55;;;;;;;7.97;4.45;;;18.50;49.70;;;;;;5029764;28;20041;-70
2021/04/20 11:37:24;;;;;;;8.40;3.75;;;18.50;46.20;;;;;;5027588;28;20041;-70
2021/04/20 11:40:16;;;;;;;13.50;6.07;;;18.60;50.10;;;;;;5045341;28;20131;-71
2021/04/20 11:42:45;;;;;;;9.05;5.55;;;18.80;48.70;;;;;;5032869;28;20060;-70
2021/04/20 11:45:11;;;;;;;7.80;5.35;;;19.10;53.10;;;;;;5031235;28;20499;-70
2021/04/20 11:47:53;;;;;;;13.32;6.07;;;19.20;45.80;;;;;;5030401;28;20152;-71
2021/04/20 11:50:21;;;;;;;11.77;4.55;;;19.10;46.40;;;;;;5032062;28;20139;-70
2021/04/20 11:52:55;;;;;;;7.30;4.40;;;19.00;48.30;;;;;;5029078;28;20048;-70
2021/04/20 11:55:28;;;;;;;8.27;4.88;;;19.30;52.00;;;;;;5041950;28;20033;-70
2021/04/20 11:58:00;;;;;;;7.20;4.35;;;19.50;47.50;;;;;;5040343;28;20125;-70
2021/04/20 12:00:29;;;;;;;9.57;3.95;;;19.50;42.50;;;;;;5024813;28;20052;-70
2021/04/20 12:02:57;;;;;;;9.85;3.97;;;19.70;47.50;;;;;;5026329;28;20132;-70
2021/04/20 12:05:24;;;;;;;9.27;4.22;;;19.80;48.20;;;;;;5026468;28;20443;-70
2021/04/20 12:07:51;;;;;;;8.75;4.70;;;20.00;46.40;;;;;;5026569;28;20108;-71
2021/04/20 12:10:19;;;;;;;11.13;5.93;;;20.00;42.20;;;;;;5029705;28;20057;-71
2021/04/20 12:12:55;;;;;;;11.27;6.82;;;19.60;43.50;;;;;;5031744;28;20047;-71
2021/04/20 12:15:21;;;;;;;9.82;5.80;;;19.50;42.50;;;;;;5034391;28;20029;-71
2021/04/20 12:17:48;;;;;;;11.48;5.72;;;19.50;44.10;;;;;;5032533;28;21807;-71
2021/04/20 12:20:18;;;;;;;6.40;5.38;;;19.30;42.70;;;;;;5033320;28;20095;-70
2021/04/20 12:22:50;;;;;;;9.00;5.10;;;19.30;44.60;;;;;;5025565;28;20099;-71
2021/04/20 12:25:17;;;;;;;10.00;4.63;;;19.40;45.60;;;;;;5019135;28;20109;-70
2021/04/20 12:27:49;;;;;;;11.68;5.78;;;19.30;44.70;;;;;;5027066;28;20042;-71
2021/04/20 12:30:17;;;;;;;11.80;5.43;;;19.30;47.30;;;;;;5031893;28;20519;-71
2021/04/20 12:32:44;;;;;;;9.75;4.38;;;19.20;45.20;;;;;;5027291;28;20045;-71
2021/04/20 12:35:10;;;;;;;6.28;4.45;;;19.40;46.20;;;;;;5030397;28;20103;-71
2021/04/20 12:37:38;;;;;;;5.85;4.57;;;19.40;47.00;;;;;;5028123;28;20041;-71
2021/04/20 12:40:08;;;;;;;11.30;3.97;;;19.70;45.90;;;;;;5023643;28;20041;-70
2021/04/20 12:42:43;;;;;;;14.55;4.68;;;19.90;46.60;;;;;;5023292;28;20115;-70
2021/04/20 12:45:19;;;;;;;10.43;4.65;;;20.10;47.00;;;;;;5024548;28;20053;-71
2021/04/20 12:47:46;;;;;;;15.25;4.65;;;20.10;45.10;;;;;;5029620;28;20061;-71
2021/04/20 12:50:17;;;;;;;9.55;4.05;;;19.80;43.20;;;;;;5029602;28;20084;-71
2021/04/20 12:52:44;;;;;;;5.63;3.95;;;19.70;45.50;;;;;;5029468;28;20053;-71
2021/04/20 12:55:16;;;;;;;6.18;4.38;;;19.70;40.90;;;;;;5027558;28;20049;-70
2021/04/20 12:57:46;;;;;;;9.18;3.60;;;19.80;44.70;;;;;;5028802;28;20052;-71
2021/04/20 13:00:27;;;;;;;11.15;3.90;;;19.70;41.20;;;;;;5023148;28;20136;-70
2021/04/20 13:02:56;;;;;;;8.30;4.18;;;19.50;44.10;;;;;;5045718;28;20073;-70